Time;durP1;ratioP1;P1;durP2;ratioP2;P2;SDS_P1;SDS_P2;PMS_P1;PMS_P2;Temp;Humidity;BMP_temperature;BMP_pressure;BME280_temperature;BME280_humidity;BME280_pressure;Samples;Min_cycle;Max_cycle;Signal;HPM_P1;HPM_P2
2021/12/21 00:00:54;;;;;;;17.55;8.02;;;1.20;99.90;;;;;;4954486;28;20078;-74
2021/12/21 00:03:20;;;;;;;17.98;8.73;;;1.10;99.90;;;;;;4955489;29;20473;-74
2021/12/21 00:05:46;;;;;;;16.10;7.38;;;1.20;99.90;;;;;;4955014;29;20055;-74
2021/12/21 00:08:15;;;;;;;17.98;7.45;;;1.10;99.90;;;;;;4955434;29;20027;-68
2021/12/21 00:10:44;;;;;;;13.05;7.60;;;1.20;99.90;;;;;;4955413;29;20023;-73
2021/12/21 00:16:02;;;;;;;12.60;6.00;;;1.20;99.90;;;;;;4934042;29;20501;-75
2021/12/21 00:21:23;;;;;;;15.20;7.90;;;1.10;99.90;;;;;;4934125;29;20047;-71
2021/12/21 00:23:54;;;;;;;15.68;7.70;;;1.10;99.90;;;;;;4933835;29;20028;-74
2021/12/21 00:26:21;;;;;;;17.30;7.40;;;1.10;99.90;;;;;;4933623;29;20047;-74
2021/12/21 00:29:00;;;;;;;13.35;6.15;;;1.20;99.90;;;;;;4917772;29;20500;-74
2021/12/21 00:31:30;;;;;;;13.07;6.75;;;1.20;99.90;;;;;;4933834;29;20055;-73
2021/12/21 00:33:56;;;;;;;13.50;7.18;;;1.20;99.90;;;;;;4933338;29;20486;-73
2021/12/21 00:36:25;;;;;;;21.48;7.75;;;1.30;99.90;;;;;;4933843;29;20062;-74
2021/12/21 00:38:53;;;;;;;16.38;7.63;;;1.30;99.90;;;;;;4933145;29;20030;-73
2021/12/21 00:41:20;;;;;;;15.88;7.25;;;1.30;99.90;;;;;;4933766;29;20086;-73
2021/12/21 00:43:46;;;;;;;19.08;6.70;;;1.40;99.90;;;;;;4933778;29;20155;-72
2021/12/21 00:46:14;;;;;;;13.18;6.32;;;1.40;99.90;;;;;;4933480;29;20079;-74
2021/12/21 00:48:48;;;;;;;15.63;6.95;;;1.40;99.90;;;;;;4933569;29;20429;-72
2021/12/21 00:51:16;;;;;;;15.43;6.35;;;1.40;99.90;;;;;;4933616;29;20039;-74
2021/12/21 00:53:42;;;;;;;15.63;7.03;;;1.40;99.90;;;;;;4950360;29;20039;-72
2021/12/21 00:56:08;;;;;;;16.65;7.70;;;1.40;99.90;;;;;;4954849;29;20039;-74
2021/12/21 00:58:37;;;;;;;18.27;6.60;;;1.50;99.90;;;;;;4936619;29;20031;-73
2021/12/21 01:01:05;;;;;;;12.30;5.93;;;1.50;99.90;;;;;;4954875;29;20085;-73
2021/12/21 01:03:38;;;;;;;15.55;7.60;;;1.50;99.90;;;;;;4954337;29;20074;-72
2021/12/21 01:06:13;;;;;;;15.23;6.60;;;1.50;99.90;;;;;;4953862;29;20216;-74
2021/12/21 01:08:56;;;;;;;15.98;7.55;;;1.50;99.90;;;;;;4954572;29;20027;-74
2021/12/21 01:11:28;;;;;;;;;;;1.50;99.90;;;;;;4955057;29;20035;-74
2021/12/21 01:14:07;;;;;;;14.23;7.10;;;1.50;99.90;;;;;;4954668;29;19953;-74
2021/12/21 01:16:42;;;;;;;23.60;7.45;;;1.50;99.90;;;;;;4937259;29;20042;-72
2021/12/21 01:19:23;;;;;;;23.50;9.70;;;1.50;99.90;;;;;;4954545;29;20044;-74
2021/12/21 01:29:49;;;;;;;15.25;6.88;;;1.50;99.90;;;;;;4954214;29;20533;-74
2021/12/21 01:34:51;;;;;;;17.08;7.30;;;1.40;99.90;;;;;;4954532;29;20360;-71
2021/12/21 01:40:09;;;;;;;18.08;7.88;;;1.40;99.90;;;;;;4954535;29;20058;-74
2021/12/21 01:50:37;;;;;;;12.77;5.40;;;1.30;99.90;;;;;;4954262;29;20023;-73
2021/12/21 01:53:03;;;;;;;12.73;6.55;;;1.20;99.90;;;;;;4954510;29;20039;-74
2021/12/21 01:55:29;;;;;;;14.00;6.15;;;1.20;99.90;;;;;;4954441;29;20027;-71
2021/12/21 01:57:55;;;;;;;15.43;6.65;;;1.10;99.90;;;;;;4954335;29;20027;-72
2021/12/21 02:00:21;;;;;;;18.90;7.20;;;1.10;99.90;;;;;;4954998;29;20377;-74
2021/12/21 02:02:47;;;;;;;13.98;6.35;;;1.00;99.90;;;;;;4954483;28;20028;-70
2021/12/21 02:05:13;;;;;;;18.75;6.68;;;1.00;99.90;;;;;;4972650;28;20051;-73
2021/12/21 02:07:39;;;;;;;16.42;6.43;;;1.00;99.90;;;;;;4973417;28;20393;-73
2021/12/21 02:10:07;;;;;;;12.63;6.80;;;1.00;99.90;;;;;;4975468;28;20137;-74
2021/12/21 02:12:33;;;;;;;14.00;6.45;;;0.90;99.90;;;;;;4977042;28;20026;-73
2021/12/21 02:15:00;;;;;;;13.15;5.93;;;0.80;99.90;;;;;;4976973;28;20114;-70
2021/12/21 02:22:45;;;;;;;15.23;6.05;;;0.80;99.90;;;;;;4976739;28;20019;-70
2021/12/21 02:30:23;;;;;;;11.85;6.22;;;0.70;99.90;;;;;;4976858;28;20030;-76
2021/12/21 02:32:50;;;;;;;13.38;5.57;;;0.70;99.90;;;;;;4975389;28;20023;-74
2021/12/21 02:35:16;;;;;;;15.48;6.03;;;0.70;99.90;;;;;;4976302;28;20449;-74
2021/12/21 02:37:42;;;;;;;10.52;5.90;;;0.60;99.90;;;;;;4976531;28;20023;-74
2021/12/21 02:40:08;;;;;;;12.65;6.28;;;0.60;99.90;;;;;;4976512;28;20038;-73
2021/12/21 02:42:34;;;;;;;14.10;5.80;;;0.60;99.90;;;;;;4961394;28;20742;-73
2021/12/21 02:45:00;;;;;;;14.20;5.75;;;0.60;99.90;;;;;;4956823;29;20453;-74
2021/12/21 02:47:26;;;;;;;13.40;5.65;;;0.60;99.90;;;;;;4956960;29;20031;-73
2021/12/21 02:49:52;;;;;;;11.60;6.28;;;0.50;99.90;;;;;;4956946;29;20085;-74
2021/12/21 02:52:18;;;;;;;8.45;4.95;;;0.50;99.90;;;;;;4956990;29;20093;-75
2021/12/21 02:54:44;;;;;;;14.05;5.70;;;0.50;99.90;;;;;;4956948;29;20591;-72
2021/12/21 02:57:10;;;;;;;10.20;5.60;;;0.50;99.90;;;;;;4956947;29;20046;-71
2021/12/21 02:59:35;;;;;;;10.52;5.13;;;0.40;99.90;;;;;;4955137;28;20042;-73
2021/12/21 03:02:01;;;;;;;12.18;5.60;;;0.40;99.90;;;;;;4956729;29;20027;-74
2021/12/21 03:04:28;;;;;;;10.65;5.63;;;0.40;99.90;;;;;;4956578;29;20031;-75
2021/12/21 03:11:58;;;;;;;18.48;6.53;;;0.30;99.90;;;;;;4955347;29;20035;-73
2021/12/21 03:14:27;;;;;;;11.15;5.57;;;0.30;99.90;;;;;;4956569;29;20031;-74
2021/12/21 03:16:53;;;;;;;12.00;5.72;;;0.30;99.90;;;;;;4956437;29;20019;-70
2021/12/21 03:19:20;;;;;;;13.18;5.10;;;0.30;99.90;;;;;;4956515;29;20039;-73
2021/12/21 03:21:45;;;;;;;8.75;5.35;;;0.30;99.90;;;;;;4955710;28;20020;-75
2021/12/21 03:24:12;;;;;;;9.40;5.28;;;0.20;99.90;;;;;;4956234;29;20031;-74
2021/12/21 03:26:41;;;;;;;13.35;6.68;;;0.30;99.90;;;;;;4956193;29;20054;-69
2021/12/21 03:29:07;;;;;;;10.93;5.15;;;0.20;99.90;;;;;;4954209;29;20035;-74
2021/12/21 03:31:33;;;;;;;8.00;5.05;;;0.20;99.90;;;;;;4956147;29;20082;-75
2021/12/21 03:34:00;;;;;;;11.90;5.78;;;0.20;99.90;;;;;;4956059;29;20020;-74
2021/12/21 03:36:26;;;;;;;12.80;5.60;;;0.20;99.90;;;;;;4956071;29;20032;-73
2021/12/21 03:39:05;;;;;;;12.80;5.63;;;0.20;99.90;;;;;;4956013;29;20030;-74
2021/12/21 03:41:31;;;;;;;11.25;5.53;;;0.10;99.90;;;;;;4955976;29;20035;-74
2021/12/21 03:44:00;;;;;;;11.13;5.05;;;0.10;99.90;;;;;;4956000;29;20103;-74
2021/12/21 03:46:32;;;;;;;10.40;5.30;;;0.10;99.90;;;;;;4955793;28;20485;-74
2021/12/21 03:49:02;;;;;;;13.90;6.40;;;0.10;99.90;;;;;;4955773;28;20050;-74
2021/12/21 03:51:27;;;;;;;14.27;6.03;;;0.10;99.90;;;;;;4954540;29;20416;-74
2021/12/21 03:53:53;;;;;;;13.45;6.30;;;0.10;99.90;;;;;;4955763;29;20023;-75
2021/12/21 03:59:18;;;;;;;14.57;6.30;;;0.00;99.90;;;;;;4933458;29;20434;-74
2021/12/21 04:01:45;;;;;;;13.88;6.18;;;0.00;99.90;;;;;;4934216;29;20035;-75
2021/12/21 04:04:10;;;;;;;10.25;5.45;;;0.00;99.90;;;;;;4934039;29;20110;-72
2021/12/21 04:06:37;;;;;;;10.70;6.32;;;0.00;99.90;;;;;;4933104;29;20146;-74
2021/12/21 04:09:05;;;;;;;8.77;5.05;;;0.00;99.90;;;;;;4934418;29;20054;-74
2021/12/21 04:11:32;;;;;;;10.38;5.97;;;0.00;99.90;;;;;;4934209;29;20035;-75
2021/12/21 04:13:59;;;;;;;10.80;6.03;;;-0.10;99.90;;;;;;4902425;29;20039;-72
2021/12/21 04:16:26;;;;;;;10.95;5.80;;;-0.10;99.90;;;;;;4933777;29;20035;-75
2021/12/21 04:18:52;;;;;;;12.98;6.13;;;-0.10;99.90;;;;;;4918106;29;20584;-75
2021/12/21 04:21:17;;;;;;;10.75;5.18;;;-0.10;99.90;;;;;;4933690;29;20072;-74
2021/12/21 04:23:43;;;;;;;10.35;5.10;;;0.00;99.90;;;;;;4933647;29;20032;-74
2021/12/21 04:26:11;;;;;;;12.50;6.53;;;0.00;99.90;;;;;;4933825;29;20043;-75
2021/12/21 04:28:38;;;;;;;10.55;5.07;;;0.00;99.90;;;;;;4933555;29;20046;-74
2021/12/21 04:31:05;;;;;;;11.52;6.30;;;0.00;99.90;;;;;;4933895;29;20034;-75
2021/12/21 04:33:32;;;;;;;12.48;6.40;;;0.00;99.90;;;;;;4933326;29;20478;-75
2021/12/21 04:35:59;;;;;;;24.60;11.88;;;0.00;99.90;;;;;;4953787;29;20054;-74
2021/12/21 04:38:31;;;;;;;24.90;9.52;;;0.00;99.90;;;;;;4953487;29;20047;-73
2021/12/21 04:41:06;;;;;;;25.30;12.25;;;0.00;99.90;;;;;;4954879;29;20043;-74
2021/12/21 04:43:32;;;;;;;19.00;10.45;;;0.00;99.90;;;;;;4954763;29;20033;-74
2021/12/21 04:45:58;;;;;;;16.73;8.43;;;0.00;99.90;;;;;;4954342;29;20114;-71
2021/12/21 04:48:24;;;;;;;15.55;6.95;;;0.10;99.90;;;;;;4954520;29;20042;-74
2021/12/21 04:50:50;;;;;;;13.15;6.20;;;0.00;99.90;;;;;;4954688;29;20034;-74
2021/12/21 04:53:16;;;;;;;14.18;6.68;;;0.00;99.90;;;;;;4954839;29;20449;-73
2021/12/21 04:55:41;;;;;;;17.65;7.30;;;0.00;99.90;;;;;;4954632;29;20031;-73
2021/12/21 04:58:08;;;;;;;16.67;7.57;;;0.00;99.90;;;;;;4954619;29;20035;-71
2021/12/21 05:00:35;;;;;;;13.68;6.88;;;0.00;99.90;;;;;;4954406;29;20137;-76
2021/12/21 05:03:01;;;;;;;13.52;5.75;;;0.00;99.90;;;;;;4954123;29;20469;-75
2021/12/21 05:05:28;;;;;;;11.95;6.55;;;0.00;99.90;;;;;;4953956;29;20494;-75
2021/12/21 05:08:07;;;;;;;14.52;7.63;;;0.00;99.90;;;;;;4952922;29;20035;-76
2021/12/21 05:10:37;;;;;;;16.45;7.93;;;-0.10;99.90;;;;;;4953932;29;20038;-75
2021/12/21 05:13:03;;;;;;;23.60;11.48;;;-0.10;99.90;;;;;;4954395;29;20482;-77
2021/12/21 05:15:29;;;;;;;16.23;8.40;;;-0.10;99.90;;;;;;4954501;29;20054;-75
2021/12/21 05:17:55;;;;;;;18.08;9.57;;;0.00;99.90;;;;;;4954476;28;20118;-76
2021/12/21 05:20:21;;;;;;;16.77;7.78;;;0.00;99.90;;;;;;4952878;29;20114;-76
2021/12/21 05:22:48;;;;;;;15.20;8.77;;;0.00;99.90;;;;;;4954340;29;20490;-77
2021/12/21 05:25:15;;;;;;;17.20;8.63;;;-0.10;99.90;;;;;;4954374;29;20081;-76
2021/12/21 05:27:41;;;;;;;16.95;7.82;;;-0.10;99.90;;;;;;4954478;29;20548;-76
2021/12/21 05:30:07;;;;;;;14.70;7.82;;;-0.10;99.90;;;;;;4954322;29;20055;-78
2021/12/21 05:32:33;;;;;;;15.50;7.65;;;0.00;99.90;;;;;;4954335;29;20055;-76
2021/12/21 05:34:59;;;;;;;15.98;8.55;;;-0.10;99.90;;;;;;4953825;29;20128;-76
2021/12/21 05:37:25;;;;;;;18.15;8.90;;;-0.10;99.90;;;;;;4954542;29;20031;-79
2021/12/21 05:39:58;;;;;;;19.27;7.70;;;-0.10;99.90;;;;;;4954240;29;20027;-79
2021/12/21 05:42:24;;;;;;;18.83;8.50;;;-0.10;99.90;;;;;;4954180;28;20456;-79
2021/12/21 05:44:50;;;;;;;15.63;8.27;;;-0.10;99.90;;;;;;4955585;28;20031;-71
2021/12/21 05:47:18;;;;;;;15.52;7.82;;;-0.20;99.90;;;;;;4957710;28;20031;-79
2021/12/21 05:49:44;;;;;;;14.88;7.45;;;-0.20;99.90;;;;;;4957641;29;20031;-78
2021/12/21 05:52:10;;;;;;;21.15;8.75;;;-0.20;99.90;;;;;;4957837;29;20083;-74
2021/12/21 05:54:36;;;;;;;17.85;8.77;;;-0.20;99.90;;;;;;4958098;28;20027;-79
2021/12/21 05:57:02;;;;;;;15.05;8.93;;;-0.20;99.90;;;;;;4957833;29;20544;-79
2021/12/21 05:59:28;;;;;;;18.13;8.63;;;-0.20;99.90;;;;;;4957707;29;20533;-70
2021/12/21 06:01:54;;;;;;;21.35;10.02;;;-0.10;99.90;;;;;;4957526;28;20035;-72
2021/12/21 06:04:21;;;;;;;19.85;9.70;;;-0.20;99.90;;;;;;4957269;29;20045;-79
2021/12/21 06:06:47;;;;;;;20.25;9.98;;;-0.20;99.90;;;;;;4957579;29;20058;-80
2021/12/21 06:09:14;;;;;;;21.55;10.57;;;-0.20;99.90;;;;;;4957451;29;20386;-79
2021/12/21 06:11:48;;;;;;;21.55;11.70;;;-0.20;99.90;;;;;;4957314;29;20027;-79
2021/12/21 06:25:23;;;;;;;20.08;9.98;;;-0.10;99.90;;;;;;4957190;29;20142;-78
2021/12/21 06:27:42;;;;;;;;;;;-0.20;99.90;;;;;;4957394;29;20035;-70
2021/12/21 06:30:09;;;;;;;22.83;12.20;;;-0.10;99.90;;;;;;4957160;29;19912;-79
2021/12/21 06:32:35;;;;;;;23.00;10.52;;;-0.10;99.90;;;;;;4957453;29;20030;-80
2021/12/21 06:35:02;;;;;;;19.65;11.25;;;0.00;99.90;;;;;;4957171;29;20462;-73
2021/12/21 06:37:28;;;;;;;17.85;11.02;;;0.00;99.90;;;;;;4957296;29;20043;-74
2021/12/21 06:39:54;;;;;;;20.55;10.02;;;0.00;99.90;;;;;;4956713;29;20024;-70
2021/12/21 06:42:20;;;;;;;23.35;12.73;;;0.00;99.90;;;;;;4956698;29;20039;-70
2021/12/21 06:44:53;;;;;;;23.48;11.70;;;0.10;99.90;;;;;;4956700;28;20035;-80
2021/12/21 06:52:49;;;;;;;21.33;11.98;;;0.30;99.90;;;;;;4956631;29;20031;-70
2021/12/21 06:55:15;;;;;;;19.63;10.93;;;0.30;99.90;;;;;;4956321;28;20034;-77
2021/12/21 06:57:43;;;;;;;20.40;10.57;;;0.40;99.90;;;;;;4954728;28;20433;-76
2021/12/21 07:00:13;;;;;;;20.98;10.85;;;0.50;99.90;;;;;;4956790;29;20107;-71
2021/12/21 07:02:39;;;;;;;18.40;9.63;;;0.60;99.90;;;;;;4956474;29;20071;-79
2021/12/21 07:05:06;;;;;;;21.90;10.15;;;0.70;99.90;;;;;;4956310;29;20469;-70
2021/12/21 07:07:32;;;;;;;18.10;9.38;;;0.70;99.90;;;;;;4956666;29;20405;-79
2021/12/21 07:10:04;;;;;;;19.08;10.25;;;0.80;99.90;;;;;;4956507;29;20114;-79
2021/12/21 07:20:25;;;;;;;19.75;10.27;;;1.00;99.90;;;;;;4956405;29;20035;-79
2021/12/21 07:22:51;;;;;;;22.20;10.60;;;1.10;99.90;;;;;;4956322;29;20070;-74
2021/12/21 07:25:21;;;;;;;22.40;9.73;;;1.20;99.90;;;;;;4956417;29;20401;-77
2021/12/21 07:27:46;;;;;;;16.02;8.38;;;1.20;99.90;;;;;;4956109;29;20269;-78
2021/12/21 07:30:12;;;;;;;21.20;10.73;;;1.20;99.90;;;;;;4956340;29;20031;-79
2021/12/21 07:32:38;;;;;;;19.15;9.88;;;1.20;99.90;;;;;;4955761;28;20031;-75
2021/12/21 07:35:05;;;;;;;17.30;8.77;;;1.30;99.90;;;;;;4955794;29;20441;-80
2021/12/21 07:37:31;;;;;;;19.38;8.38;;;1.30;99.90;;;;;;4956310;29;20031;-72
2021/12/21 07:39:57;;;;;;;15.40;8.43;;;1.40;99.90;;;;;;4956032;29;20102;-79
2021/12/21 07:42:23;;;;;;;17.15;8.18;;;1.60;99.90;;;;;;4955261;29;20059;-80
2021/12/21 07:44:50;;;;;;;15.57;7.20;;;1.50;99.90;;;;;;4955665;29;20573;-78
2021/12/21 07:47:17;;;;;;;14.52;7.38;;;1.50;99.90;;;;;;4955622;29;20035;-79
2021/12/21 07:49:43;;;;;;;14.93;7.63;;;1.70;99.90;;;;;;4955848;29;20441;-79
2021/12/21 07:52:10;;;;;;;15.00;7.50;;;1.70;99.90;;;;;;4955614;29;20065;-75
2021/12/21 07:54:37;;;;;;;15.18;7.47;;;1.80;99.90;;;;;;4955651;29;20478;-79
2021/12/21 07:57:06;;;;;;;13.77;6.63;;;1.70;99.90;;;;;;4956029;29;20525;-79
2021/12/21 07:59:33;;;;;;;18.08;8.52;;;1.80;99.90;;;;;;4955496;29;20027;-79
2021/12/21 08:01:59;;;;;;;21.70;9.23;;;1.80;99.90;;;;;;4955181;29;20035;-78
2021/12/21 08:04:28;;;;;;;17.27;7.95;;;1.90;99.90;;;;;;4955077;28;20036;-79
2021/12/21 08:06:56;;;;;;;17.08;7.45;;;1.90;99.90;;;;;;4953792;28;20051;-78
2021/12/21 08:09:25;;;;;;;20.67;9.70;;;2.00;99.90;;;;;;4954512;29;20054;-79
2021/12/21 08:14:37;;;;;;;17.58;9.32;;;2.00;99.90;;;;;;4954193;29;20537;-77
2021/12/21 08:17:03;;;;;;;17.63;8.52;;;2.00;99.90;;;;;;4955157;29;20102;-72
2021/12/21 08:19:28;;;;;;;21.70;9.70;;;2.10;99.90;;;;;;4954898;29;20047;-78
2021/12/21 08:21:54;;;;;;;13.93;7.47;;;2.20;99.90;;;;;;4954319;29;20077;-79
2021/12/21 08:24:20;;;;;;;18.20;8.70;;;2.30;99.90;;;;;;4955342;29;20066;-77
2021/12/21 08:26:46;;;;;;;14.77;7.95;;;2.40;99.90;;;;;;4955197;29;20465;-74
2021/12/21 08:29:12;;;;;;;16.40;7.47;;;2.50;99.90;;;;;;4954990;29;20027;-75
2021/12/21 08:31:38;;;;;;;17.75;8.30;;;2.50;99.90;;;;;;4954845;29;20101;-78
2021/12/21 08:34:04;;;;;;;19.10;8.48;;;2.40;99.80;;;;;;4954931;29;20027;-70
2021/12/21 08:36:31;;;;;;;16.50;8.70;;;2.40;99.20;;;;;;4954928;29;20066;-79
2021/12/21 08:38:57;;;;;;;13.40;5.65;;;2.30;99.90;;;;;;4955092;29;20028;-77
2021/12/21 08:41:24;;;;;;;13.20;5.78;;;2.30;99.20;;;;;;4954956;28;20031;-78
2021/12/21 08:43:51;;;;;;;15.15;7.20;;;2.40;99.60;;;;;;4954700;29;20389;-77
2021/12/21 08:46:17;;;;;;;13.73;6.00;;;2.50;99.90;;;;;;4954712;29;20039;-78
2021/12/21 08:48:43;;;;;;;12.40;5.35;;;2.70;99.80;;;;;;4954937;29;20029;-78
2021/12/21 08:51:09;;;;;;;11.63;5.25;;;2.80;98.80;;;;;;4954686;29;20031;-76
2021/12/21 08:53:38;;;;;;;9.05;5.10;;;2.70;96.10;;;;;;4954936;29;20474;-78
2021/12/21 08:56:04;;;;;;;13.52;6.43;;;2.70;95.30;;;;;;4954903;29;20462;-71
2021/12/21 08:58:30;;;;;;;9.80;4.95;;;2.70;98.50;;;;;;4954643;29;20027;-76
2021/12/21 09:00:56;;;;;;;14.80;6.18;;;2.70;97.00;;;;;;4954655;29;20101;-78
2021/12/21 09:03:23;;;;;;;11.75;4.93;;;2.70;96.50;;;;;;4953966;29;20034;-78
2021/12/21 09:05:49;;;;;;;25.55;13.02;;;2.70;95.50;;;;;;4954284;29;20509;-71
2021/12/21 09:08:15;;;;;;;11.98;4.70;;;2.80;97.10;;;;;;4950227;29;20070;-75
2021/12/21 09:10:41;;;;;;;9.18;4.50;;;2.70;94.80;;;;;;4953114;29;20034;-78
2021/12/21 09:13:09;;;;;;;17.90;9.23;;;2.70;94.40;;;;;;4954557;29;20023;-79
2021/12/21 09:15:35;;;;;;;17.60;8.88;;;2.80;95.00;;;;;;4954396;29;20039;-76
2021/12/21 09:18:01;;;;;;;20.63;8.82;;;2.80;94.70;;;;;;4954124;29;20020;-78
2021/12/21 09:20:28;;;;;;;32.72;12.20;;;2.80;94.40;;;;;;4956743;29;20083;-74
2021/12/21 09:22:55;;;;;;;16.00;7.85;;;2.80;95.00;;;;;;4957897;29;20027;-78
2021/12/21 09:25:23;;;;;;;13.40;6.95;;;2.80;94.40;;;;;;4958161;29;20067;-78
2021/12/21 09:27:49;;;;;;;17.65;7.25;;;2.90;94.90;;;;;;4957966;29;20019;-77
2021/12/21 09:30:17;;;;;;;13.05;5.15;;;2.90;94.10;;;;;;4957487;29;20034;-78
2021/12/21 09:32:44;;;;;;;11.95;5.53;;;2.80;94.00;;;;;;4957950;29;20386;-78
2021/12/21 09:35:10;;;;;;;16.77;7.55;;;2.80;93.20;;;;;;4958020;29;20043;-78
2021/12/21 09:37:38;;;;;;;13.07;5.07;;;2.90;93.90;;;;;;4958051;29;20031;-73
2021/12/21 09:40:07;;;;;;;12.07;6.05;;;2.80;93.70;;;;;;4958591;29;20079;-78
2021/12/21 09:42:33;;;;;;;8.77;3.88;;;2.80;93.00;;;;;;4957841;29;20115;-78
2021/12/21 09:44:59;;;;;;;10.20;5.40;;;2.80;93.00;;;;;;4956896;29;20032;-77
2021/12/21 09:47:26;;;;;;;11.50;5.20;;;2.90;92.80;;;;;;4956900;28;20039;-78
2021/12/21 09:49:53;;;;;;;10.73;4.90;;;3.10;94.00;;;;;;4957404;29;20023;-77
2021/12/21 09:52:22;;;;;;;13.20;5.05;;;2.90;92.10;;;;;;4956980;29;20028;-71
2021/12/21 09:54:49;;;;;;;12.82;6.20;;;3.00;92.50;;;;;;4957052;28;20038;-76
2021/12/21 09:57:17;;;;;;;7.55;4.13;;;3.20;93.50;;;;;;4956996;29;20106;-78
2021/12/21 09:59:44;;;;;;;6.45;3.63;;;3.20;91.20;;;;;;4957228;29;20082;-70
2021/12/21 10:02:11;;;;;;;8.65;3.88;;;3.10;90.90;;;;;;4957014;29;20031;-70
2021/12/21 10:04:55;;;;;;;8.27;3.10;;;3.20;91.10;;;;;;4957134;28;20367;-78
2021/12/21 10:07:22;;;;;;;7.70;3.83;;;3.20;91.10;;;;;;4957082;29;20051;-72
2021/12/21 10:09:50;;;;;;;16.05;7.95;;;2.90;90.90;;;;;;4957089;29;20102;-73
2021/12/21 10:12:46;;;;;;;21.88;8.68;;;2.80;91.20;;;;;;4956855;29;20042;-77
2021/12/21 10:15:15;;;;;;;18.80;7.97;;;2.60;91.20;;;;;;4915902;29;20037;-77
2021/12/21 10:17:59;;;;;;;12.65;5.47;;;2.70;92.30;;;;;;4899861;29;20098;-76
2021/12/21 10:20:44;;;;;;;14.85;6.78;;;2.70;91.10;;;;;;4899843;29;20051;-77
2021/12/21 10:23:20;;;;;;;13.82;5.65;;;2.70;91.80;;;;;;4915224;29;20053;-78
2021/12/21 10:25:52;;;;;;;13.15;5.90;;;2.90;93.40;;;;;;4899738;29;20057;-78
2021/12/21 10:28:29;;;;;;;13.98;5.97;;;2.90;92.00;;;;;;4911450;29;20452;-78
2021/12/21 10:31:22;;;;;;;10.40;4.70;;;2.80;91.30;;;;;;4898707;29;20040;-78
2021/12/21 10:33:52;;;;;;;10.65;4.82;;;2.70;91.30;;;;;;4897120;29;20052;-77
2021/12/21 10:36:25;;;;;;;12.77;6.55;;;2.70;91.60;;;;;;4899296;29;20057;-77
2021/12/21 10:38:57;;;;;;;;;;;2.80;91.80;;;;;;4915717;29;20499;-78
2021/12/21 10:41:37;;;;;;;10.70;5.93;;;2.90;91.90;;;;;;4907032;29;19957;-77
2021/12/21 10:44:13;;;;;;;11.60;5.30;;;3.40;92.40;;;;;;4916111;29;20037;-77
2021/12/21 10:46:48;;;;;;;7.28;3.80;;;3.50;90.80;;;;;;4899246;29;20088;-79
2021/12/21 10:49:22;;;;;;;8.13;4.43;;;3.40;89.30;;;;;;4899619;29;20036;-76
2021/12/21 10:51:55;;;;;;;;;;;3.30;90.20;;;;;;4934650;29;20106;-78
2021/12/21 10:54:44;;;;;;;6.20;3.30;;;3.20;89.20;;;;;;4974569;29;20458;-77
2021/12/21 10:57:19;;;;;;;9.68;4.78;;;3.10;88.40;;;;;;4974022;28;20043;-77
2021/12/21 10:59:56;;;;;;;9.32;3.42;;;3.10;89.10;;;;;;4972404;29;20048;-76
2021/12/21 11:02:35;;;;;;;15.07;5.20;;;3.00;88.10;;;;;;4974077;29;20066;-78
2021/12/21 11:05:11;;;;;;;11.50;4.30;;;3.10;90.50;;;;;;4970294;29;20063;-76
2021/12/21 11:07:54;;;;;;;6.22;3.20;;;3.20;89.50;;;;;;4970166;28;20035;-77
2021/12/21 11:10:32;;;;;;;8.52;3.03;;;3.20;88.00;;;;;;4953516;29;20036;-79
2021/12/21 11:13:10;;;;;;;10.60;4.28;;;3.10;87.00;;;;;;4954203;29;20410;-77
2021/12/21 11:15:44;;;;;;;9.20;3.97;;;3.00;88.70;;;;;;4952458;29;20430;-75
2021/12/21 11:18:18;;;;;;;7.57;3.67;;;3.00;89.50;;;;;;4953020;29;20044;-79
2021/12/21 11:20:52;;;;;;;6.53;3.92;;;2.90;88.20;;;;;;4971538;28;20032;-79
2021/12/21 11:23:27;;;;;;;15.10;4.95;;;2.80;89.10;;;;;;4970710;29;20027;-78
2021/12/21 11:26:01;;;;;;;14.30;5.70;;;2.90;90.10;;;;;;4954836;29;20071;-77
2021/12/21 11:28:36;;;;;;;25.85;12.00;;;2.90;90.50;;;;;;4954515;29;20032;-78
2021/12/21 11:31:17;;;;;;;30.00;15.60;;;3.00;91.60;;;;;;4954860;29;20028;-77
2021/12/21 11:33:49;;;;;;;27.80;14.35;;;3.20;90.30;;;;;;4954453;29;20619;-78
2021/12/21 11:39:14;;;;;;;12.98;6.65;;;3.60;89.50;;;;;;4970763;29;20028;-77
2021/12/21 11:41:45;;;;;;;16.92;5.57;;;3.60;86.50;;;;;;4936775;29;20095;-78
2021/12/21 11:44:18;;;;;;;7.68;4.13;;;3.60;87.70;;;;;;4952501;29;20044;-79
2021/12/21 11:46:51;;;;;;;8.52;4.30;;;3.50;86.80;;;;;;4936444;29;20055;-78
2021/12/21 11:49:26;;;;;;;15.75;6.80;;;3.70;88.50;;;;;;4950492;29;20030;-78
2021/12/21 11:52:10;;;;;;;10.30;5.30;;;3.90;89.80;;;;;;4957176;29;20034;-77
2021/12/21 11:54:54;;;;;;;9.07;4.80;;;3.80;87.90;;;;;;4957638;28;20060;-77
2021/12/21 11:57:42;;;;;;;7.68;4.38;;;3.60;85.10;;;;;;4959215;29;20019;-78
2021/12/21 12:00:28;;;;;;;8.80;4.13;;;3.50;87.20;;;;;;4959475;29;20035;-76
2021/12/21 12:03:14;;;;;;;8.63;4.15;;;3.50;86.90;;;;;;4951748;29;20023;-77
2021/12/21 12:05:56;;;;;;;9.23;3.67;;;3.40;86.70;;;;;;4963079;29;20055;-77
2021/12/21 12:08:45;;;;;;;7.47;3.53;;;3.40;85.30;;;;;;4973613;29;20051;-79
2021/12/21 12:11:39;;;;;;;9.85;5.60;;;3.60;86.90;;;;;;4972963;29;20023;-78
2021/12/21 12:14:14;;;;;;;9.52;4.50;;;3.70;86.10;;;;;;4955512;29;20062;-77
2021/12/21 12:16:49;;;;;;;15.82;7.25;;;3.60;86.10;;;;;;4971761;29;20027;-76
2021/12/21 12:19:38;;;;;;;9.75;5.85;;;3.60;87.60;;;;;;4972007;29;20042;-78
2021/12/21 12:22:12;;;;;;;15.88;5.80;;;3.70;87.10;;;;;;4973156;28;20028;-78
2021/12/21 12:24:55;;;;;;;10.93;5.32;;;3.80;87.70;;;;;;4957643;29;20027;-77
2021/12/21 12:27:23;;;;;;;15.23;5.60;;;3.80;86.60;;;;;;4954276;29;20089;-77
2021/12/21 12:30:17;;;;;;;7.65;4.40;;;3.90;84.80;;;;;;4954341;29;20027;-78
2021/12/21 12:32:51;;;;;;;11.05;4.68;;;3.90;85.40;;;;;;4935161;29;20042;-73
2021/12/21 12:35:20;;;;;;;13.80;5.78;;;3.90;84.30;;;;;;4954118;28;20442;-77
2021/12/21 12:37:50;;;;;;;15.70;6.32;;;3.80;83.40;;;;;;4954808;29;20104;-77
2021/12/21 12:40:18;;;;;;;14.82;6.85;;;3.90;84.00;;;;;;4954874;29;20512;-78
2021/12/21 12:42:55;;;;;;;13.27;6.28;;;4.00;83.60;;;;;;4955270;28;20098;-78
2021/12/21 12:45:23;;;;;;;19.85;7.78;;;4.00;82.30;;;;;;4954507;29;20039;-77
2021/12/21 12:47:54;;;;;;;13.95;6.20;;;4.10;83.50;;;;;;4954236;29;20031;-72
2021/12/21 12:50:27;;;;;;;10.98;3.85;;;3.90;82.60;;;;;;4954839;29;20023;-78
2021/12/21 12:52:59;;;;;;;18.27;8.52;;;3.90;80.80;;;;;;4954892;28;20035;-77
2021/12/21 12:55:38;;;;;;;14.68;7.00;;;3.90;81.60;;;;;;4954760;29;20050;-78
2021/12/21 12:58:16;;;;;;;12.40;6.32;;;3.90;83.80;;;;;;4954577;29;20114;-78
2021/12/21 13:00:45;;;;;;;10.55;5.22;;;3.80;82.60;;;;;;4953413;29;20106;-76
2021/12/21 13:03:11;;;;;;;8.77;4.82;;;4.00;82.40;;;;;;4954625;29;20031;-73
2021/12/21 13:05:52;;;;;;;11.35;5.53;;;3.90;82.60;;;;;;4954325;29;20519;-78
2021/12/21 13:08:23;;;;;;;10.60;5.40;;;3.90;83.90;;;;;;4954681;29;20126;-76
2021/12/21 13:10:52;;;;;;;8.27;4.13;;;3.90;82.20;;;;;;4954577;29;20031;-77
2021/12/21 13:13:19;;;;;;;9.98;4.43;;;3.90;80.80;;;;;;4954166;29;20094;-75
2021/12/21 13:15:49;;;;;;;14.38;6.13;;;3.90;82.30;;;;;;4954180;29;20035;-77
2021/12/21 13:18:19;;;;;;;11.15;5.57;;;3.90;82.40;;;;;;4954054;29;20086;-77
2021/12/21 13:20:49;;;;;;;13.57;7.03;;;3.90;81.10;;;;;;4954698;29;20028;-77
2021/12/21 13:23:17;;;;;;;16.38;6.93;;;3.80;80.90;;;;;;4954351;29;20028;-77
2021/12/21 13:26:07;;;;;;;17.75;8.65;;;3.80;81.60;;;;;;4954243;29;20086;-76
2021/12/21 13:28:52;;;;;;;13.85;6.35;;;3.80;81.30;;;;;;4895240;29;20041;-75
2021/12/21 13:31:21;;;;;;;11.27;5.60;;;3.70;81.10;;;;;;4895422;29;20559;-71
2021/12/21 13:34:13;;;;;;;15.60;5.97;;;3.70;81.40;;;;;;4895396;29;20043;-74
2021/12/21 13:36:47;;;;;;;9.63;4.78;;;3.60;80.60;;;;;;4893369;29;20169;-74
2021/12/21 13:39:16;;;;;;;10.57;5.05;;;3.70;80.40;;;;;;4895007;29;20064;-72
2021/12/21 13:41:50;;;;;;;11.95;4.80;;;3.70;81.20;;;;;;4894383;29;20040;-74
2021/12/21 13:44:24;;;;;;;11.48;5.50;;;3.60;81.30;;;;;;4894270;29;20060;-73
2021/12/21 13:46:50;;;;;;;13.38;6.13;;;3.50;81.60;;;;;;4893989;29;20193;-76
2021/12/21 13:49:16;;;;;;;18.90;8.90;;;3.60;81.70;;;;;;4894162;29;20508;-76
2021/12/21 13:51:54;;;;;;;19.45;10.05;;;3.60;81.30;;;;;;4894591;29;20044;-77
2021/12/21 13:54:21;;;;;;;14.63;6.95;;;3.50;82.30;;;;;;4894805;29;20068;-77
2021/12/21 13:56:49;;;;;;;17.50;9.45;;;3.50;81.90;;;;;;4894529;29;20081;-76
2021/12/21 13:59:16;;;;;;;26.08;9.43;;;3.50;82.40;;;;;;4894855;29;20036;-77
2021/12/21 14:01:45;;;;;;;16.10;7.22;;;3.40;82.10;;;;;;4895012;29;20036;-77
2021/12/21 14:04:16;;;;;;;11.40;5.40;;;3.40;81.40;;;;;;4894428;29;20033;-71
2021/12/21 14:06:44;;;;;;;19.63;9.63;;;3.40;81.50;;;;;;4956008;28;20051;-78
2021/12/21 14:09:13;;;;;;;18.30;9.25;;;3.40;82.40;;;;;;4956645;29;20122;-77
2021/12/21 14:11:41;;;;;;;20.38;10.15;;;3.30;82.70;;;;;;4956555;29;20046;-76
2021/12/21 14:14:17;;;;;;;12.77;6.03;;;3.20;83.30;;;;;;4956732;29;20035;-77
2021/12/21 14:16:52;;;;;;;14.75;6.75;;;3.20;83.40;;;;;;4957169;29;20028;-78